Time;durP1;ratioP1;P1;durP2;ratioP2;P2;SDS_P1;SDS_P2;PMS_P1;PMS_P2;Temp;Humidity;BMP_temperature;BMP_pressure;BME280_temperature;BME280_humidity;BME280_pressure;Samples;Min_cycle;Max_cycle;Signal;HPM_P1;HPM_P2
2021/03/17 00:00:34;;;;;;;;;;;;;;;6.25;27.13;100817.34;4917258;29;20138;-82
2021/03/17 00:03:38;;;;;;;;;;;;;;;5.81;28.22;100818.22;4919657;29;20376;-83
2021/03/17 00:06:41;;;;;;;;;;;;;;;5.80;28.72;100810.41;4917624;29;19915;-83
2021/03/17 00:09:44;;;;;;;;;;;;;;;5.64;29.47;100811.63;4917555;29;19915;-84
2021/03/17 00:12:49;;;;;;;;;;;;;;;5.64;31.17;100808.94;4918022;29;19915;-84
2021/03/17 00:15:53;;;;;;;;;;;;;;;6.01;31.30;100809.19;4917252;29;19915;-83
2021/03/17 00:18:57;;;;;;;;;;;;;;;6.15;30.55;100809.34;4918006;29;20368;-84
2021/03/17 00:22:00;;;;;;;;;;;;;;;6.32;31.58;100807.03;4918374;29;19944;-84
2021/03/17 00:25:04;;;;;;;;;;;;;;;6.39;31.94;100816.44;4918124;29;20295;-83
2021/03/17 00:28:10;;;;;;;;;;;;;;;6.25;30.70;100815.47;4920657;29;19915;-84
2021/03/17 00:31:15;;;;;;;;;;;;;;;6.33;30.55;100814.88;4917268;29;19915;-84
2021/03/17 00:34:18;;;;;;;;;;;;;;;6.24;33.46;100815.78;4911119;29;19919;-84
2021/03/17 00:37:21;;;;;;;;;;;;;;;6.10;31.43;100804.00;4919935;29;19915;-84
2021/03/17 00:40:25;;;;;;;;;;;;;;;6.10;31.65;100806.69;4920361;29;19923;-84
2021/03/17 00:43:29;;;;;;;;;;;;;;;6.28;30.87;100816.81;4918389;29;19919;-84
2021/03/17 00:46:32;;;;;;;;;;;;;;;6.14;31.25;100811.28;4919864;29;19915;-83
2021/03/17 00:49:25;;;;;;;;;;;;;;;6.06;33.22;100808.34;4910440;29;20315;-84
2021/03/17 00:52:10;;;;;;;;;;;;;;;6.06;31.26;100809.16;4918215;29;19919;-84
2021/03/17 00:55:14;;;;;;;;;;;;;;;5.70;32.78;100797.00;4919042;29;20291;-84
2021/03/17 00:58:17;;;;;;;;;;;;;;;5.59;34.92;100801.66;4917683;29;19915;-83
2021/03/17 01:01:01;;;;;;;;;;;;;;;5.72;33.99;100792.94;4907130;29;19915;-83
2021/03/17 01:03:46;;;;;;;;;;;;;;;5.80;32.69;100788.81;4920559;29;19915;-83
2021/03/17 01:06:31;;;;;;;;;;;;;;;5.76;33.54;100785.88;4921243;29;20415;-84
2021/03/17 01:09:15;;;;;;;;;;;;;;;5.82;32.88;100784.78;4924158;29;19915;-84
2021/03/17 01:12:01;;;;;;;;;;;;;;;5.86;33.46;100783.13;4920873;29;19915;-84
2021/03/17 01:14:45;;;;;;;;;;;;;;;6.00;37.03;100783.28;4919747;29;19915;-84
2021/03/17 01:17:30;;;;;;;;;;;;;;;5.74;31.95;100779.19;4919641;29;20379;-83
2021/03/17 01:20:15;;;;;;;;;;;;;;;5.77;32.58;100781.31;4922332;29;19923;-84
2021/03/17 01:23:01;;;;;;;;;;;;;;;5.32;32.83;100779.72;4919809;29;19915;-84
2021/03/17 01:25:46;;;;;;;;;;;;;;;4.51;36.60;100775.47;4916519;29;19915;-84
2021/03/17 01:28:31;;;;;;;;;;;;;;;4.29;35.33;100770.41;4919531;29;19915;-84
2021/03/17 01:31:17;;;;;;;;;;;;;;;4.24;34.93;100773.09;4920125;29;19914;-82
2021/03/17 01:34:02;;;;;;;;;;;;;;;4.01;34.38;100765.59;4905809;29;19915;-83
2021/03/17 01:36:47;;;;;;;;;;;;;;;3.76;35.35;100769.09;4914140;29;20379;-83
2021/03/17 01:39:32;;;;;;;;;;;;;;;4.09;34.74;100786.56;4918052;29;20291;-83
2021/03/17 01:42:16;;;;;;;;;;;;;;;4.11;35.72;100781.75;4922358;29;19915;-83
2021/03/17 01:45:02;;;;;;;;;;;;;;;4.41;34.14;100782.78;4922649;29;19915;-84
2021/03/17 01:47:47;;;;;;;;;;;;;;;4.19;34.45;100773.13;4917110;29;19919;-83
2021/03/17 01:50:34;;;;;;;;;;;;;;;4.30;36.77;100773.91;4923011;29;19915;-84
2021/03/17 01:53:22;;;;;;;;;;;;;;;4.62;34.82;100768.19;4908026;29;19923;-84
2021/03/17 01:56:08;;;;;;;;;;;;;;;4.14;35.69;100767.75;4917659;29;19915;-84
2021/03/17 01:58:53;;;;;;;;;;;;;;;4.18;34.75;100762.59;4921716;29;19919;-83
2021/03/17 02:01:38;;;;;;;;;;;;;;;4.02;35.24;100772.56;4920900;29;19915;-83
2021/03/17 02:04:23;;;;;;;;;;;;;;;4.40;35.06;100762.31;4917704;29;19915;-83
2021/03/17 02:07:09;;;;;;;;;;;;;;;4.26;34.50;100762.88;4915734;29;19915;-82
2021/03/17 02:09:53;;;;;;;;;;;;;;;4.34;34.61;100760.69;4919765;29;19914;-83
2021/03/17 02:12:56;;;;;;;;;;;;;;;4.06;35.70;100765.59;4919339;29;19915;-83
2021/03/17 02:16:03;;;;;;;;;;;;;;;4.29;36.84;100770.41;4923603;29;19919;-83
2021/03/17 02:18:57;;;;;;;;;;;;;;;4.33;34.15;100770.66;4917987;29;19919;-83
2021/03/17 02:22:01;;;;;;;;;;;;;;;4.36;34.32;100770.13;4924260;29;19915;-83
2021/03/17 02:24:55;;;;;;;;;;;;;;;4.67;33.54;100760.09;4921703;29;19915;-83
2021/03/17 02:27:39;;;;;;;;;;;;;;;4.94;32.14;100765.88;4915700;29;19915;-83
2021/03/17 02:30:42;;;;;;;;;;;;;;;5.02;32.04;100764.50;4920845;29;19915;-83
2021/03/17 02:33:30;;;;;;;;;;;;;;;4.84;32.50;100760.53;4916297;29;19915;-83
2021/03/17 02:36:21;;;;;;;;;;;;;;;4.99;32.51;100757.78;4916694;29;20507;-83
2021/03/17 02:39:09;;;;;;;;;;;;;;;4.91;33.32;100755.66;4916515;29;19919;-83
2021/03/17 02:41:57;;;;;;;;;;;;;;;5.02;34.03;100764.50;4919979;29;19915;-83
2021/03/17 02:44:45;;;;;;;;;;;;;;;4.76;35.75;100763.00;4924842;29;19915;-84
2021/03/17 02:47:37;;;;;;;;;;;;;;;4.66;35.68;100770.03;4917907;29;19918;-83
2021/03/17 02:50:22;;;;;;;;;;;;;;;4.50;37.43;100771.16;4923359;29;19915;-84
2021/03/17 02:53:07;;;;;;;;;;;;;;;4.53;35.67;100756.34;4923713;29;19915;-84
2021/03/17 02:55:54;;;;;;;;;;;;;;;4.49;35.67;100757.97;4922139;29;19915;-84
2021/03/17 02:58:44;;;;;;;;;;;;;;;4.43;36.47;100764.44;4922693;29;19918;-83
2021/03/17 03:01:30;;;;;;;;;;;;;;;4.51;35.36;100761.22;4924011;29;19919;-83
2021/03/17 03:04:15;;;;;;;;;;;;;;;4.37;35.74;100765.56;4922294;29;19915;-83
2021/03/17 03:07:01;;;;;;;;;;;;;;;4.40;36.88;100760.44;4921207;29;20396;-83
2021/03/17 03:09:47;;;;;;;;;;;;;;;4.52;38.34;100768.22;4926076;29;19915;-83
2021/03/17 03:12:32;;;;;;;;;;;;;;;4.34;36.48;100760.69;4907483;29;19915;-83
2021/03/17 03:15:19;;;;;;;;;;;;;;;3.97;36.61;100759.13;4919717;29;19916;-83
2021/03/17 03:18:05;;;;;;;;;;;;;;;4.25;36.27;100763.16;4923805;29;19919;-83
2021/03/17 03:20:52;;;;;;;;;;;;;;;4.13;36.46;100763.44;4920681;29;19919;-83
2021/03/17 03:23:37;;;;;;;;;;;;;;;4.30;36.57;100760.44;4920773;29;19918;-83
2021/03/17 03:26:22;;;;;;;;;;;;;;;4.48;36.42;100759.03;4921859;29;19915;-84
2021/03/17 03:29:08;;;;;;;;;;;;;;;4.30;36.41;100763.94;4924296;29;20299;-83
2021/03/17 03:31:52;;;;;;;;;;;;;;;4.38;37.19;100767.16;4921790;29;19915;-83
2021/03/17 03:34:37;;;;;;;;;;;;;;;4.50;37.45;100770.34;4925106;29;20311;-81
2021/03/17 03:37:22;;;;;;;;;;;;;;;4.27;36.35;100777.94;4916859;29;19915;-82
2021/03/17 03:40:08;;;;;;;;;;;;;;;4.06;37.13;100779.06;4923500;29;20396;-82
2021/03/17 03:42:52;;;;;;;;;;;;;;;3.61;39.94;100773.66;4916862;29;20295;-83
2021/03/17 03:45:37;;;;;;;;;;;;;;;4.02;37.70;100761.81;4925661;29;19915;-82
2021/03/17 03:48:22;;;;;;;;;;;;;;;4.18;38.66;100768.00;4921209;29;19915;-83
2021/03/17 03:51:07;;;;;;;;;;;;;;;4.27;39.58;100769.84;4921024;29;19915;-82
2021/03/17 03:54:05;;;;;;;;;;;;;;;4.15;39.24;100774.75;4923127;29;19915;-87
2021/03/17 03:57:12;;;;;;;;;;;;;;;4.08;38.17;100773.38;4924830;29;19915;-87
2021/03/17 04:00:02;;;;;;;;;;;;;;;4.19;38.05;100766.91;4925054;29;19919;-87
2021/03/17 04:02:51;;;;;;;;;;;;;;;4.01;38.18;100771.00;4922968;29;20295;-86
2021/03/17 04:05:39;;;;;;;;;;;;;;;3.84;38.75;100776.63;4923385;29;19922;-87
2021/03/17 04:08:25;;;;;;;;;;;;;;;3.85;40.87;100775.56;4928660;29;19915;-88
2021/03/17 04:11:12;;;;;;;;;;;;;;;3.90;40.46;100777.44;4926384;29;19919;-87
2021/03/17 04:13:58;;;;;;;;;;;;;;;3.97;39.96;100782.53;4924075;29;20367;-88
2021/03/17 04:16:43;;;;;;;;;;;;;;;3.48;40.48;100775.00;4923128;29;19915;-86
2021/03/17 04:19:28;;;;;;;;;;;;;;;3.93;38.77;100768.00;4907518;29;19919;-86
2021/03/17 04:22:15;;;;;;;;;;;;;;;3.97;37.77;100777.97;4905850;29;19915;-86
2021/03/17 04:25:01;;;;;;;;;;;;;;;3.97;38.08;100772.59;4922172;29;19915;-86
2021/03/17 04:27:47;;;;;;;;;;;;;;;3.82;37.61;100773.41;4926208;29;20379;-86
2021/03/17 04:30:32;;;;;;;;;;;;;;;3.89;37.21;100770.44;4924708;29;19915;-86
2021/03/17 04:33:17;;;;;;;;;;;;;;;3.91;38.22;100765.63;4927164;29;20291;-86
2021/03/17 04:36:02;;;;;;;;;;;;;;;4.18;37.01;100773.38;4924619;29;19915;-86
2021/03/17 04:38:47;;;;;;;;;;;;;;;4.04;40.32;100769.63;4923884;29;19915;-86
2021/03/17 04:41:32;;;;;;;;;;;;;;;3.76;37.76;100765.59;4921619;29;19919;-86
2021/03/17 04:44:17;;;;;;;;;;;;;;;3.79;37.95;100770.44;4926900;29;19915;-86
2021/03/17 04:47:04;;;;;;;;;;;;;;;3.78;36.67;100766.13;4907420;29;19916;-86
2021/03/17 04:49:50;;;;;;;;;;;;;;;3.54;38.88;100762.38;4910724;29;20376;-86
2021/03/17 04:52:36;;;;;;;;;;;;;;;3.85;37.73;100766.69;4907586;29;20295;-86
2021/03/17 04:55:21;;;;;;;;;;;;;;;3.61;38.66;100768.25;4914174;29;19924;-86
2021/03/17 04:58:11;;;;;;;;;;;;;;;3.61;38.33;100771.75;4926470;29;19915;-86
2021/03/17 05:00:55;;;;;;;;;;;;;;;3.51;38.14;100774.44;4925950;29;19919;-86
2021/03/17 05:03:41;;;;;;;;;;;;;;;3.56;39.30;100770.94;4905819;29;19922;-85
2021/03/17 05:06:27;;;;;;;;;;;;;;;3.49;40.13;100770.41;4914844;29;19916;-86
2021/03/17 05:09:12;;;;;;;;;;;;;;;3.68;37.93;100763.44;4907001;29;19919;-86
2021/03/17 05:12:00;;;;;;;;;;;;;;;3.67;39.49;100761.81;4906218;29;19915;-86
2021/03/17 05:14:45;;;;;;;;;;;;;;;3.55;39.38;100758.59;4913466;29;19915;-85
2021/03/17 05:17:32;;;;;;;;;;;;;;;3.39;39.60;100761.28;4945424;23;20303;-83
2021/03/17 05:20:22;;;;;;;;;;;;;;;3.33;39.80;100756.97;4920733;29;19919;-81
2021/03/17 05:23:07;;;;;;;;;;;;;;;3.19;39.37;100758.53;4918643;29;19915;-80
2021/03/17 05:25:52;;;;;;;;;;;;;;;3.21;39.54;100755.56;4923441;29;19914;-80
2021/03/17 05:28:39;;;;;;;;;;;;;;;2.97;39.63;100748.00;4918922;29;19915;-80
2021/03/17 05:31:25;;;;;;;;;;;;;;;2.31;40.51;100749.56;4918919;29;19915;-80
2021/03/17 05:34:10;;;;;;;;;;;;;;;2.61;40.10;100753.50;4921443;29;20387;-79
2021/03/17 05:36:55;;;;;;;;;;;;;;;2.53;41.76;100750.25;4919901;29;19915;-80
2021/03/17 05:39:39;;;;;;;;;;;;;;;2.91;41.31;100746.38;4918197;29;19919;-80
2021/03/17 05:42:24;;;;;;;;;;;;;;;2.71;41.22;100745.47;4915657;29;20291;-80
2021/03/17 05:45:17;;;;;;;;;;;;;;;3.03;40.14;100738.09;4918999;29;19915;-80
2021/03/17 05:48:02;;;;;;;;;;;;;;;2.82;39.54;100737.22;4918950;29;19915;-80
2021/03/17 05:50:47;;;;;;;;;;;;;;;2.77;39.63;100742.56;4923370;29;19923;-80
2021/03/17 05:53:32;;;;;;;;;;;;;;;3.52;37.42;100732.25;4921249;29;20296;-80
2021/03/17 05:56:18;;;;;;;;;;;;;;;6.01;31.94;100730.94;4907628;29;19915;-80
2021/03/17 05:59:03;;;;;;;;;;;;;;;8.29;27.63;100730.44;4917178;29;20304;-80
2021/03/17 06:01:48;;;;;;;;;;;;;;;10.59;24.17;100742.78;4911393;29;19919;-79
2021/03/17 06:04:33;;;;;;;;;;;;;;;11.92;21.16;100741.22;4917178;29;19915;-79
2021/03/17 06:07:22;;;;;;;;;;;;;;;12.88;20.21;100735.06;4921698;29;19918;-80
2021/03/17 06:10:07;;;;;;;;;;;;;;;13.14;19.88;100730.28;4921440;29;19915;-79
2021/03/17 06:12:57;;;;;;;;;;;;;;;14.91;18.07;100724.75;4919710;29;19915;-79
2021/03/17 06:15:45;;;;;;;;;;;;;;;15.10;17.41;100746.84;4925370;29;20303;-80
2021/03/17 06:18:40;;;;;;;;;;;;;;;16.40;15.79;100745.47;4921729;29;19915;-79
2021/03/17 06:21:25;;;;;;;;;;;;;;;17.17;15.46;100737.53;4922995;29;19919;-79
2021/03/17 06:24:10;;;;;;;;;;;;;;;17.29;15.58;100734.63;4926278;29;19915;-80
2021/03/17 06:26:55;;;;;;;;;;;;;;;18.32;14.22;100741.03;4923833;29;19915;-81
2021/03/17 06:29:40;;;;;;;;;;;;;;;19.05;13.63;100744.56;4923105;29;19923;-77
2021/03/17 06:32:26;;;;;;;;;;;;;;;19.10;13.61;100738.75;4920388;29;19915;-79
2021/03/17 06:35:18;;;;;;;;;;;;;;;17.07;15.25;100734.16;4923545;29;20371;-80
2021/03/17 06:38:03;;;;;;;;;;;;;;;14.99;17.89;100742.97;4922851;29;19915;-77
2021/03/17 06:40:58;;;;;;;;;;;;;;;16.86;16.52;100739.19;4925558;29;19919;-79
2021/03/17 06:43:43;;;;;;;;;;;;;;;16.90;16.47;100745.53;4923913;29;19915;-78
2021/03/17 06:46:28;;;;;;;;;;;;;;;18.55;15.09;100749.31;4922232;29;20291;-81
2021/03/17 06:49:33;;;;;;;;;;;;;;;20.97;13.37;100751.06;4924863;29;19915;-78
2021/03/17 06:52:31;;;;;;;;;;;;;;;20.90;12.08;100745.47;4907787;29;19915;-77
2021/03/17 06:55:17;;;;;;;;;;;;;;;21.05;11.96;100747.16;4924706;29;19919;-77
2021/03/17 06:58:02;;;;;;;;;;;;;;;16.66;15.37;100741.03;4922205;29;19915;-78
2021/03/17 07:00:46;;;;;;;;;;;;;;;12.56;21.03;100750.16;4921045;29;19919;-78
2021/03/17 07:03:31;;;;;;;;;;;;;;;10.72;23.45;100752.75;4919015;29;20295;-79
2021/03/17 07:06:16;;;;;;;;;;;;;;;10.43;24.82;100755.19;4922624;29;19915;-80
2021/03/17 07:09:13;;;;;;;;;;;;;;;9.68;26.33;100751.38;4918883;29;19915;-81
2021/03/17 07:12:07;;;;;;;;;;;;;;;9.47;27.14;100750.25;4924300;29;20303;-79
2021/03/17 07:14:52;;;;;;;;;;;;;;;9.57;26.59;100744.56;4921998;29;20397;-79
2021/03/17 07:17:38;;;;;;;;;;;;;;;9.87;27.92;100751.97;4919813;29;19915;-77
2021/03/17 07:20:42;;;;;;;;;;;;;;;10.10;26.70;100738.38;4923951;29;20403;-77
2021/03/17 07:23:28;;;;;;;;;;;;;;;10.01;25.79;100748.38;4921849;29;19919;-77
2021/03/17 07:26:26;;;;;;;;;;;;;;;10.44;27.52;100751.38;4919094;29;19914;-80
2021/03/17 07:29:15;;;;;;;;;;;;;;;10.97;26.29;100748.53;4922511;29;19915;-80
2021/03/17 07:32:00;;;;;;;;;;;;;;;11.66;23.75;100754.03;4920875;29;19915;-80
2021/03/17 07:34:44;;;;;;;;;;;;;;;11.77;23.37;100755.31;4918136;29;19919;-80
2021/03/17 07:37:29;;;;;;;;;;;;;;;11.95;22.66;100752.25;4921866;29;19915;-79
2021/03/17 07:40:13;;;;;;;;;;;;;;;12.07;22.83;100754.31;4919034;29;19919;-78
2021/03/17 07:42:59;;;;;;;;;;;;;;;11.96;22.08;100742.97;4918523;29;19915;-79
2021/03/17 07:45:44;;;;;;;;;;;;;;;12.18;21.78;100754.78;4907572;29;19915;-78
2021/03/17 07:48:28;;;;;;;;;;;;;;;12.22;20.54;100750.28;4920180;29;19915;-78
2021/03/17 07:51:13;;;;;;;;;;;;;;;12.27;18.64;100747.38;4913349;29;19915;-78
2021/03/17 07:53:58;;;;;;;;;;;;;;;12.26;19.35;100752.03;4908048;29;19916;-78
2021/03/17 07:56:44;;;;;;;;;;;;;;;12.64;19.93;100768.44;4902301;29;20383;-78
2021/03/17 07:59:30;;;;;;;;;;;;;;;12.71;18.73;100759.72;4901714;29;19915;-78
2021/03/17 08:02:16;;;;;;;;;;;;;;;12.66;18.04;100754.44;4905660;29;19915;-79
2021/03/17 08:05:01;;;;;;;;;;;;;;;12.98;17.47;100761.19;4888105;29;19915;-78
2021/03/17 08:07:47;;;;;;;;;;;;;;;13.00;19.62;100758.94;4900306;29;19919;-79
2021/03/17 08:10:36;;;;;;;;;;;;;;;13.12;19.74;100756.31;4904055;29;19915;-78
2021/03/17 08:13:21;;;;;;;;;;;;;;;12.32;19.00;100749.91;4905248;29;19916;-81
2021/03/17 08:16:07;;;;;;;;;;;;;;;12.75;17.55;100758.72;4904719;29;20149;-80
2021/03/17 08:18:51;;;;;;;;;;;;;;;13.14;17.25;100751.31;4898293;29;19915;-80
2021/03/17 08:21:47;;;;;;;;;;;;;;;12.41;18.17;100753.41;4901442;29;19919;-80
2021/03/17 08:24:40;;;;;;;;;;;;;;;13.01;17.44;100755.06;4898855;29;20304;-80
2021/03/17 08:27:25;;;;;;;;;;;;;;;12.52;17.50;100753.84;4902548;29;19916;-81
2021/03/17 08:30:11;;;;;;;;;;;;;;;12.57;17.56;100748.22;4900289;29;19915;-79
2021/03/17 08:32:58;;;;;;;;;;;;;;;12.79;17.48;100754.22;4898915;29;20111;-80
2021/03/17 08:36:00;;;;;;;;;;;;;;;13.50;17.83;100748.00;4902481;29;19915;-79
2021/03/17 08:38:49;;;;;;;;;;;;;;;13.28;17.31;100746.41;4898998;29;20299;-79
2021/03/17 08:41:44;;;;;;;;;;;;;;;13.38;16.74;100753.41;4902791;29;19919;-81
2021/03/17 08:44:30;;;;;;;;;;;;;;;13.75;16.71;100738.78;4914596;29;19915;-81
2021/03/17 08:47:29;;;;;;;;;;;;;;;13.78;16.84;100742.78;4918133;29;19915;-81
2021/03/17 08:50:14;;;;;;;;;;;;;;;13.76;16.70;100745.06;4907690;29;19915;-81
2021/03/17 08:52:59;;;;;;;;;;;;;;;13.79;16.41;100736.97;4916478;29;19915;-82
2021/03/17 08:55:43;;;;;;;;;;;;;;;14.12;16.03;100742.41;4917539;29;19914;-81
2021/03/17 08:58:29;;;;;;;;;;;;;;;13.98;15.60;100739.19;4918356;29;19915;-79
2021/03/17 09:01:30;;;;;;;;;;;;;;;13.08;15.41;100741.69;4919135;29;19919;-83
2021/03/17 09:04:33;;;;;;;;;;;;;;;12.98;16.03;100744.81;4916768;29;19915;-79
2021/03/17 09:07:19;;;;;;;;;;;;;;;13.18;16.30;100749.53;4919941;29;19915;-81
2021/03/17 09:10:06;;;;;;;;;;;;;;;13.05;16.54;100736.91;4917536;29;20343;-81
2021/03/17 09:12:51;;;;;;;;;;;;;;;13.22;15.80;100740.34;4919578;29;19915;-80
2021/03/17 09:15:45;;;;;;;;;;;;;;;13.15;15.89;100734.63;4919422;29;19914;-80
2021/03/17 09:18:30;;;;;;;;;;;;;;;13.02;17.74;100729.34;4917580;29;19922;-80
2021/03/17 09:21:27;;;;;;;;;;;;;;;13.45;18.46;100732.63;4921446;29;19919;-81
2021/03/17 09:24:38;;;;;;;;;;;;;;;13.41;19.28;100731.66;4918778;29;19919;-81
2021/03/17 09:27:23;;;;;;;;;;;;;;;13.35;18.42;100732.22;4920798;29;19919;-80
2021/03/17 09:30:07;;;;;;;;;;;;;;;13.07;17.99;100729.16;4919898;29;19919;-79
2021/03/17 09:32:59;;;;;;;;;;;;;;;13.26;18.28;100730.34;4917722;29;19915;-79
2021/03/17 09:35:49;;;;;;;;;;;;;;;13.45;18.18;100737.28;4922438;29;19915;-79
2021/03/17 09:38:39;;;;;;;;;;;;;;;13.23;18.59;100727.47;4917959;29;19915;-79
2021/03/17 09:41:27;;;;;;;;;;;;;;;13.65;18.77;100728.28;4917440;29;19919;-79
2021/03/17 09:44:13;;;;;;;;;;;;;;;13.61;18.77;100725.38;4920875;29;20307;-80
2021/03/17 09:46:58;;;;;;;;;;;;;;;13.65;18.50;100726.34;4919703;29;19915;-78
2021/03/17 09:49:43;;;;;;;;;;;;;;;13.56;17.68;100717.41;4917604;29;19915;-81
2021/03/17 09:52:27;;;;;;;;;;;;;;;13.65;18.59;100714.59;4923438;29;19918;-80
2021/03/17 09:55:28;;;;;;;;;;;;;;;13.68;18.61;100701.06;4908644;29;19919;-81
2021/03/17 09:58:12;;;;;;;;;;;;;;;13.83;17.23;100705.09;4920135;29;19914;-81
2021/03/17 10:01:06;;;;;;;;;;;;;;;13.71;17.60;100694.91;4924567;29;19923;-81
2021/03/17 10:03:51;;;;;;;;;;;;;;;13.77;17.60;100694.69;4922334;29;19915;-80
2021/03/17 10:06:39;;;;;;;;;;;;;;;13.84;18.00;100690.31;4906671;29;19923;-82
2021/03/17 10:09:27;;;;;;;;;;;;;;;13.75;17.68;100691.53;4925424;29;19915;-80
2021/03/17 10:12:16;;;;;;;;;;;;;;;13.79;17.93;100690.50;4908264;29;19919;-80
2021/03/17 10:15:03;;;;;;;;;;;;;;;13.88;17.58;100684.94;4919235;29;19914;-81
2021/03/17 10:17:49;;;;;;;;;;;;;;;13.82;17.67;100680.81;4895182;29;19919;-80
2021/03/17 10:20:33;;;;;;;;;;;;;;;13.94;17.65;100681.66;4922127;29;20371;-81
2021/03/17 10:23:18;;;;;;;;;;;;;;;14.22;16.86;100675.56;4921075;29;20403;-80
2021/03/17 10:26:02;;;;;;;;;;;;;;;14.62;17.20;100665.56;4924125;29;19915;-79
2021/03/17 10:28:47;;;;;;;;;;;;;;;14.67;17.01;100665.34;4920174;29;19922;-79
2021/03/17 10:31:35;;;;;;;;;;;;;;;14.41;16.72;100665.69;4919936;29;19915;-80
2021/03/17 10:34:21;;;;;;;;;;;;;;;14.32;16.55;100662.25;4923615;29;19915;-80
2021/03/17 10:37:10;;;;;;;;;;;;;;;14.97;16.42;100661.19;4922161;29;19915;-80
2021/03/17 10:40:02;;;;;;;;;;;;;;;15.21;15.61;100662.25;4919641;29;20295;-77
2021/03/17 10:42:48;;;;;;;;;;;;;;;15.56;14.92;100654.25;4923406;29;19919;-79
2021/03/17 10:45:41;;;;;;;;;;;;;;;15.33;14.33;100652.06;4921357;29;19915;-79
2021/03/17 10:48:26;;;;;;;;;;;;;;;15.66;14.49;100654.56;4919003;29;19915;-79
2021/03/17 10:51:10;;;;;;;;;;;;;;;15.64;14.06;100650.59;4923014;29;19915;-78
2021/03/17 10:53:54;;;;;;;;;;;;;;;16.78;13.12;100644.03;4921257;29;19915;-79
2021/03/17 10:56:39;;;;;;;;;;;;;;;19.35;11.01;100648.09;4919279;29;19915;-78
2021/03/17 10:59:30;;;;;;;;;;;;;;;25.26;7.46;100652.97;4922864;29;20319;-80
2021/03/17 11:02:15;;;;;;;;;;;;;;;28.94;5.75;100667.31;4920930;29;20312;-79
2021/03/17 11:05:06;;;;;;;;;;;;;;;29.66;4.97;100656.41;4918962;29;20371;-79
2021/03/17 11:07:50;;;;;;;;;;;;;;;31.10;4.80;100658.41;4894456;29;19915;-78
2021/03/17 11:10:50;;;;;;;;;;;;;;;31.23;4.27;100661.94;4921199;29;19915;-79
2021/03/17 11:13:36;;;;;;;;;;;;;;;32.78;3.89;100659.69;4923636;29;19915;-76
2021/03/17 11:16:28;;;;;;;;;;;;;;;32.64;4.16;100657.53;4922090;29;20295;-78
2021/03/17 11:19:13;;;;;;;;;;;;;;;31.31;4.69;100654.78;4944575;23;19923;-81
2021/03/17 11:21:58;;;;;;;;;;;;;;;31.83;4.35;100656.03;4953843;28;19922;-81
2021/03/17 11:24:42;;;;;;;;;;;;;;;31.07;4.60;100645.28;4961231;28;19914;-81
2021/03/17 11:27:27;;;;;;;;;;;;;;;31.68;4.11;100646.59;4944762;29;19914;-81
2021/03/17 11:30:11;;;;;;;;;;;;;;;31.87;4.04;100651.03;4938443;29;19922;-80
2021/03/17 11:32:56;;;;;;;;;;;;;;;32.95;3.47;100646.88;4941505;29;19919;-81
2021/03/17 11:35:42;;;;;;;;;;;;;;;31.53;3.96;100639.94;4940027;29;19914;-81
2021/03/17 11:38:27;;;;;;;;;;;;;;;33.62;3.39;100637.34;4937444;29;19918;-81
2021/03/17 11:41:12;;;;;;;;;;;;;;;30.92;4.80;100625.31;4941019;29;19922;-81
2021/03/17 11:43:57;;;;;;;;;;;;;;;31.76;4.33;100622.56;4939614;29;19914;-81
2021/03/17 11:46:42;;;;;;;;;;;;;;;32.64;3.88;100630.13;4938233;29;19914;-81
2021/03/17 11:49:27;;;;;;;;;;;;;;;33.52;3.45;100627.34;4924506;29;19915;-81
2021/03/17 11:52:11;;;;;;;;;;;;;;;30.53;4.38;100604.25;4939139;29;20384;-80
2021/03/17 11:54:56;;;;;;;;;;;;;;;31.23;3.98;100610.56;4936776;29;19919;-80
2021/03/17 11:57:41;;;;;;;;;;;;;;;32.80;3.64;100617.00;4937576;29;19938;-81
2021/03/17 12:00:25;;;;;;;;;;;;;;;33.00;3.65;100603.97;4941417;29;19915;-81
2021/03/17 12:03:13;;;;;;;;;;;;;;;32.31;4.23;100608.63;4938240;29;19914;-81
2021/03/17 12:05:58;;;;;;;;;;;;;;;30.36;4.86;100588.03;4942818;29;19915;-81
2021/03/17 12:08:43;;;;;;;;;;;;;;;32.29;4.53;100603.50;4941114;29;19915;-81
2021/03/17 12:11:29;;;;;;;;;;;;;;;31.36;4.77;100600.78;4934029;29;19915;-81
2021/03/17 12:14:13;;;;;;;;;;;;;;;32.83;4.30;100593.50;4942226;29;19914;-80
2021/03/17 12:17:00;;;;;;;;;;;;;;;31.05;4.93;100593.59;4940045;29;19915;-81
2021/03/17 12:19:44;;;;;;;;;;;;;;;30.93;4.97;100578.38;4939290;29;19922;-81
2021/03/17 12:22:28;;;;;;;;;;;;;;;30.79;5.44;100578.88;4947432;29;20390;-81
2021/03/17 12:25:14;;;;;;;;;;;;;;;30.81;4.88;100580.00;4941360;29;19914;-81
2021/03/17 12:27:59;;;;;;;;;;;;;;;30.78;5.01;100564.03;4938654;29;19914;-81
2021/03/17 12:30:45;;;;;;;;;;;;;;;30.06;5.22;100565.00;4942815;29;19927;-81
2021/03/17 12:33:29;;;;;;;;;;;;;;;30.76;5.24;100566.53;4940344;29;19914;-81
2021/03/17 12:36:21;;;;;;;;;;;;;;;32.09;4.50;100575.75;5111690;27;19957;-82
2021/03/17 12:39:06;;;;;;;;;;;;;;;30.43;5.05;100571.69;5113985;28;19916;-80
2021/03/17 12:41:50;;;;;;;;;;;;;;;34.02;3.41;100574.16;5114493;28;20501;-79
2021/03/17 12:44:35;;;;;;;;;;;;;;;33.89;3.48;100561.03;5112067;28;19923;-78
2021/03/17 12:47:20;;;;;;;;;;;;;;;30.65;4.33;100556.94;5111006;28;20388;-78
2021/03/17 12:50:06;;;;;;;;;;;;;;;30.95;4.52;100556.19;5111929;28;19923;-81
2021/03/17 12:52:50;;;;;;;;;;;;;;;31.14;4.32;100545.91;5113517;28;19923;-81
2021/03/17 12:55:35;;;;;;;;;;;;;;;29.79;5.05;100545.03;5111356;28;19923;-80
2021/03/17 12:58:20;;;;;;;;;;;;;;;30.15;4.67;100542.63;5115280;28;19916;-82
2021/03/17 13:01:05;;;;;;;;;;;;;;;30.10;4.86;100532.00;5112560;28;19915;-79
2021/03/17 13:03:49;;;;;;;;;;;;;;;30.59;4.67;100532.25;5110056;28;19916;-79
2021/03/17 13:06:35;;;;;;;;;;;;;;;31.25;4.03;100537.81;5113377;28;19916;-78
2021/03/17 13:09:20;;;;;;;;;;;;;;;32.10;3.68;100535.09;5112033;28;20295;-78
2021/03/17 13:12:06;;;;;;;;;;;;;;;30.98;3.86;100533.59;5108524;28;19919;-79
2021/03/17 13:14:50;;;;;;;;;;;;;;;31.81;4.11;100526.31;5112703;28;19920;-76
2021/03/17 13:17:35;;;;;;;;;;;;;;;32.77;3.71;100519.31;5111628;28;20387;-80
2021/03/17 13:20:20;;;;;;;;;;;;;;;31.50;3.94;100517.13;5109519;28;19916;-78
2021/03/17 13:23:05;;;;;;;;;;;;;;;32.24;3.33;100520.47;5105071;28;19916;-78
2021/03/17 13:25:49;;;;;;;;;;;;;;;34.36;2.50;100519.94;5111937;28;19916;-79
2021/03/17 13:28:35;;;;;;;;;;;;;;;33.32;3.39;100515.09;5110219;28;19916;-78
2021/03/17 13:31:20;;;;;;;;;;;;;;;32.46;3.44;100513.88;5115489;28;19919;-76
2021/03/17 13:34:05;;;;;;;;;;;;;;;31.55;4.19;100506.06;5111826;28;19916;-77
2021/03/17 13:36:49;;;;;;;;;;;;;;;31.77;4.12;100503.19;5129879;27;19916;-78
2021/03/17 13:39:36;;;;;;;;;;;;;;;30.58;4.61;100497.00;5131515;27;19916;-79
2021/03/17 13:42:21;;;;;;;;;;;;;;;30.59;4.35;100495.75;5133325;27;19915;-78
2021/03/17 13:45:06;;;;;;;;;;;;;;;31.44;3.92;100500.88;5127527;27;19915;-79
2021/03/17 13:47:51;;;;;;;;;;;;;;;33.19;3.15;100503.25;5119724;28;20007;-80
2021/03/17 13:50:36;;;;;;;;;;;;;;;31.78;3.52;100490.69;5118510;28;19916;-77
2021/03/17 13:53:21;;;;;;;;;;;;;;;31.42;3.63;100494.16;5117217;28;19916;-78
2021/03/17 13:56:05;;;;;;;;;;;;;;;32.71;3.41;100495.88;5119310;28;19923;-79
2021/03/17 13:58:50;;;;;;;;;;;;;;;31.41;3.83;100486.97;5114299;28;19916;-78
2021/03/17 14:01:38;;;;;;;;;;;;;;;32.12;2.95;100489.66;5116499;28;19916;-80
2021/03/17 14:04:23;;;;;;;;;;;;;;;31.60;3.51;100493.44;5114842;28;19920;-78
2021/03/17 14:07:08;;;;;;;;;;;;;;;29.15;4.60;100484.66;5118606;27;20290;-77
2021/03/17 14:09:52;;;;;;;;;;;;;;;27.90;5.22;100484.56;5116652;28;19923;-76
2021/03/17 14:12:37;;;;;;;;;;;;;;;27.93;5.48;100480.13;5117220;27;19919;-79
2021/03/17 14:15:22;;;;;;;;;;;;;;;27.27;5.88;100483.34;5120026;28;19920;-78
2021/03/17 14:18:07;;;;;;;;;;;;;;;27.74;5.80;100486.59;5118418;28;19916;-78
2021/03/17 14:20:52;;;;;;;;;;;;;;;27.07;5.99;100480.63;5114118;28;20303;-78
2021/03/17 14:23:36;;;;;;;;;;;;;;;25.97;7.13;100471.63;5117064;28;20389;-79
2021/03/17 14:26:21;;;;;;;;;;;;;;;28.08;5.87;100479.31;5116550;28;19916;-80
2021/03/17 14:29:07;;;;;;;;;;;;;;;27.10;6.32;100477.75;5119046;28;19916;-79